createdAt,value
2022-11-10T00:00:35.088Z,964.8
2022-11-10T00:01:35.163Z,964.81
2022-11-10T00:02:35.232Z,964.85
2022-11-10T00:04:35.114Z,964.84
2022-11-10T00:05:35.235Z,964.88
2022-11-10T00:06:35.123Z,964.87
2022-11-10T00:07:35.081Z,964.91
2022-11-10T00:08:36.333Z,964.9
2022-11-10T00:09:35.106Z,964.93
2022-11-10T00:10:35.177Z,964.96
2022-11-10T00:11:35.244Z,964.92
2022-11-10T00:12:35.213Z,964.97
2022-11-10T00:13:35.193Z,964.99
2022-11-10T00:14:36.373Z,965.01
2022-11-10T00:17:35.181Z,965.04
2022-11-10T00:19:35.120Z,965.09
2022-11-10T00:20:35.180Z,965.07
2022-11-10T00:21:35.120Z,965.08
2022-11-10T00:22:35.129Z,965.06
2022-11-10T00:23:35.257Z,965.08
2022-11-10T00:25:35.193Z,965.1
2022-11-10T00:26:35.263Z,965.09
2022-11-10T00:27:35.159Z,965.08
2022-11-10T00:28:35.195Z,965.07
2022-11-10T00:29:35.268Z,965.08
2022-11-10T00:30:35.235Z,965.09
2022-11-10T00:31:35.197Z,965.14
2022-11-10T00:32:35.272Z,965.11
2022-11-10T00:33:35.237Z,965.19
2022-11-10T00:34:35.309Z,965.15
2022-11-10T00:35:35.173Z,965.17
2022-11-10T00:36:35.245Z,965.16
2022-11-10T00:37:35.309Z,965.17
2022-11-10T00:39:35.240Z,965.18
2022-11-10T00:40:35.312Z,965.19
2022-11-10T00:41:35.151Z,965.2
2022-11-10T00:43:36.562Z,965.23
2022-11-10T00:44:35.173Z,965.25
2022-11-10T00:46:35.327Z,965.29
2022-11-10T00:47:35.282Z,965.27
2022-11-10T00:48:35.251Z,965.29
2022-11-10T00:49:35.218Z,965.31
2022-11-10T00:50:35.304Z,965.33
2022-11-10T00:51:35.257Z,965.34
2022-11-10T00:52:35.328Z,965.38
2022-11-10T00:53:35.189Z,965.39
2022-11-10T00:54:35.264Z,965.41
2022-11-10T00:56:35.311Z,965.4
2022-11-10T00:57:35.271Z,965.43
2022-11-10T00:58:35.344Z,965.45
2022-11-10T00:59:35.329Z,965.46
2022-11-10T01:00:35.275Z,965.45
2022-11-10T01:01:35.314Z,965.43
2022-11-10T01:02:35.338Z,965.47
2022-11-10T01:03:35.404Z,965.49
2022-11-10T01:05:35.319Z,965.51
2022-11-10T01:06:35.304Z,965.52
2022-11-10T01:07:35.234Z,965.55
2022-11-10T01:08:35.322Z,965.54
2022-11-10T01:10:35.406Z,965.57
2022-11-10T01:11:35.253Z,965.58
2022-11-10T01:12:35.244Z,965.61
2022-11-10T01:13:35.256Z,965.63
2022-11-10T01:14:35.331Z,965.67
2022-11-10T01:16:35.367Z,965.68
2022-11-10T01:17:35.334Z,965.65
2022-11-10T01:18:35.407Z,965.7
2022-11-10T01:19:35.392Z,965.66
2022-11-10T01:20:35.341Z,965.67
2022-11-10T01:21:36.292Z,965.7
2022-11-10T01:22:35.383Z,965.73
2022-11-10T01:25:35.420Z,965.72
2022-11-10T01:26:35.371Z,965.76
2022-11-10T01:27:35.414Z,965.72
2022-11-10T01:28:35.380Z,965.76
2022-11-10T01:29:35.362Z,965.74
2022-11-10T01:30:35.342Z,965.72
2022-11-10T01:31:35.390Z,965.78
2022-11-10T01:32:35.353Z,965.79
2022-11-10T01:33:35.425Z,965.77
2022-11-10T01:34:35.389Z,965.73
2022-11-10T01:35:35.367Z,965.78
2022-11-10T01:36:36.406Z,965.74
2022-11-10T01:38:35.482Z,965.73
2022-11-10T01:43:35.498Z,965.75
2022-11-10T01:44:35.383Z,965.72
2022-11-10T01:46:35.411Z,965.74
2022-11-10T01:47:35.490Z,965.77
2022-11-10T01:48:35.328Z,965.74
2022-11-10T01:49:35.416Z,965.76
2022-11-10T01:50:35.486Z,965.81
2022-11-10T01:51:35.451Z,965.84
2022-11-10T01:52:35.415Z,965.79
2022-11-10T01:53:35.490Z,965.81
2022-11-10T01:54:35.455Z,965.79
2022-11-10T01:56:35.487Z,965.76
2022-11-10T01:57:35.455Z,965.77
2022-11-10T02:00:35.490Z,965.81
2022-11-10T02:01:35.436Z,965.84
2022-11-10T02:02:35.400Z,965.78
2022-11-10T02:03:35.367Z,965.83
2022-11-10T02:05:35.510Z,965.82
2022-11-10T02:06:35.376Z,965.8
2022-11-10T02:07:35.457Z,965.85
2022-11-10T02:08:35.503Z,965.82
2022-11-10T02:10:35.375Z,965.85
2022-11-10T02:13:35.460Z,965.84
2022-11-10T02:14:35.518Z,965.86
2022-11-10T02:15:35.485Z,965.83
2022-11-10T02:16:35.461Z,965.81
2022-11-10T02:17:35.513Z,965.82
2022-11-10T02:18:35.491Z,965.83
2022-11-10T02:19:35.555Z,965.84
2022-11-10T02:20:35.408Z,965.86
2022-11-10T02:21:35.495Z,965.88
2022-11-10T02:22:35.566Z,965.86
2022-11-10T02:23:35.527Z,965.87
2022-11-10T02:24:35.489Z,965.93
2022-11-10T02:25:36.678Z,965.94
2022-11-10T02:26:35.534Z,965.96
2022-11-10T02:27:35.499Z,965.99
2022-11-10T02:28:35.571Z,965.96
2022-11-10T02:29:35.539Z,965.98
2022-11-10T02:31:35.484Z,965.96
2022-11-10T02:32:35.542Z,965.98
2022-11-10T02:33:35.503Z,966.01
2022-11-10T02:34:35.572Z,965.99
2022-11-10T02:35:35.543Z,966.01
2022-11-10T02:36:35.512Z,966.06
2022-11-10T02:37:35.578Z,966.08
2022-11-10T02:38:35.549Z,966.05
2022-11-10T02:39:35.521Z,966.11
2022-11-10T02:40:35.585Z,966.1
2022-11-10T02:41:35.546Z,966.13
2022-11-10T02:42:35.512Z,966.09
2022-11-10T02:43:35.469Z,966.08
2022-11-10T02:44:35.563Z,966.12
2022-11-10T02:45:35.627Z,966.16
2022-11-10T02:47:35.554Z,966.22
2022-11-10T02:48:35.650Z,966.25
2022-11-10T02:50:35.653Z,966.28
2022-11-10T02:51:35.558Z,966.29
2022-11-10T02:52:35.495Z,966.35
2022-11-10T02:53:35.572Z,966.33
2022-11-10T02:54:35.643Z,966.3
2022-11-10T02:55:35.611Z,966.35
2022-11-10T02:56:35.572Z,966.37
2022-11-10T02:57:35.552Z,966.38
2022-11-10T02:58:35.610Z,966.36
2022-11-10T02:59:35.624Z,966.42
2022-11-10T03:00:35.658Z,966.37
2022-11-10T03:01:35.647Z,966.43
2022-11-10T03:02:35.589Z,966.47
2022-11-10T03:03:36.909Z,966.44
2022-11-10T03:05:35.591Z,966.48
2022-11-10T03:06:35.576Z,966.52
2022-11-10T03:07:35.623Z,966.53
2022-11-10T03:08:35.596Z,966.51
2022-11-10T03:09:35.529Z,966.55
2022-11-10T03:10:35.628Z,966.59
2022-11-10T03:11:35.516Z,966.6
2022-11-10T03:13:58.800Z,966.63
2022-11-10T03:14:35.678Z,966.61
2022-11-10T03:15:35.670Z,966.64
2022-11-10T03:16:35.636Z,966.68
2022-11-10T03:18:35.667Z,966.69
2022-11-10T03:19:35.636Z,966.72
2022-11-10T03:20:35.547Z,966.73
2022-11-10T03:21:35.674Z,966.76
2022-11-10T03:22:35.639Z,966.81
2022-11-10T03:23:35.709Z,966.82
2022-11-10T03:24:35.556Z,966.83
2022-11-10T03:25:35.654Z,966.85
2022-11-10T03:26:36.564Z,966.88
2022-11-10T03:28:35.649Z,966.9
2022-11-10T03:29:36.563Z,966.89
2022-11-10T03:30:35.579Z,966.9
2022-11-10T03:31:35.675Z,966.87
2022-11-10T03:33:35.708Z,966.9
2022-11-10T03:34:35.657Z,966.87
2022-11-10T03:35:35.729Z,966.9
2022-11-10T03:36:35.693Z,966.91
2022-11-10T03:37:35.663Z,966.98
2022-11-10T03:38:35.741Z,966.99
2022-11-10T03:39:35.601Z,967
2022-11-10T03:40:45.581Z,967.05
2022-11-10T03:43:35.785Z,967.04
2022-11-10T03:44:35.643Z,967.06
2022-11-10T03:46:35.675Z,967.1
2022-11-10T03:47:35.747Z,967.09
2022-11-10T03:48:35.709Z,967.13
2022-11-10T03:49:35.699Z,967.1
2022-11-10T03:50:35.755Z,967.15
2022-11-10T03:51:35.727Z,967.14
2022-11-10T03:52:35.627Z,967.17
2022-11-10T03:53:35.643Z,967.15
2022-11-10T03:54:35.728Z,967.16
2022-11-10T03:56:35.640Z,967.18
2022-11-10T03:57:35.630Z,967.17
2022-11-10T03:58:35.642Z,967.18
2022-11-10T03:59:35.760Z,967.2
2022-11-10T04:00:35.731Z,967.19
2022-11-10T04:01:35.840Z,967.23
2022-11-10T04:02:35.766Z,967.27
2022-11-10T04:03:35.732Z,967.26
2022-11-10T04:04:35.808Z,967.27
2022-11-10T04:06:35.758Z,967.25
2022-11-10T04:07:35.656Z,967.26
2022-11-10T04:09:35.741Z,967.25
2022-11-10T04:10:35.829Z,967.26
2022-11-10T04:11:35.817Z,967.25
2022-11-10T04:12:35.748Z,967.27
2022-11-10T04:13:35.718Z,967.32
2022-11-10T04:14:35.786Z,967.3
2022-11-10T04:15:35.748Z,967.33
2022-11-10T04:16:35.814Z,967.32
2022-11-10T04:17:35.800Z,967.31
2022-11-10T04:18:35.686Z,967.32
2022-11-10T04:20:35.872Z,967.37
2022-11-10T04:21:35.883Z,967.36
2022-11-10T04:22:35.722Z,967.39
2022-11-10T04:23:35.791Z,967.44
2022-11-10T04:24:35.786Z,967.46
2022-11-10T04:25:35.748Z,967.45
2022-11-10T04:26:35.802Z,967.48
2022-11-10T04:27:35.787Z,967.51
2022-11-10T04:28:36.918Z,967.52
2022-11-10T04:29:35.810Z,967.53
2022-11-10T04:30:35.881Z,967.52
2022-11-10T04:31:35.722Z,967.55
2022-11-10T04:32:35.800Z,967.58
2022-11-10T04:34:35.853Z,967.59
2022-11-10T04:36:35.823Z,967.58
2022-11-10T04:37:35.729Z,967.57
2022-11-10T04:38:35.817Z,967.59
2022-11-10T04:39:36.979Z,967.57
2022-11-10T04:40:35.854Z,967.61
2022-11-10T04:41:35.837Z,967.53
2022-11-10T04:42:35.787Z,967.55
2022-11-10T04:43:35.841Z,967.61
2022-11-10T04:45:35.889Z,967.64
2022-11-10T04:46:35.853Z,967.69
2022-11-10T04:48:35.908Z,967.74
2022-11-10T04:50:35.907Z,967.73
2022-11-10T04:51:35.895Z,967.76
2022-11-10T04:52:35.867Z,967.78
2022-11-10T04:53:35.838Z,967.77
2022-11-10T04:55:35.884Z,967.76
2022-11-10T04:56:35.859Z,967.77
2022-11-10T04:57:35.921Z,967.76
2022-11-10T04:58:35.788Z,967.79
2022-11-10T04:59:35.843Z,967.81
2022-11-10T05:00:36.000Z,967.85
2022-11-10T05:03:35.938Z,967.86
2022-11-10T05:05:35.804Z,967.82
2022-11-10T05:07:35.896Z,967.81
2022-11-10T05:08:35.891Z,967.83
2022-11-10T05:09:35.932Z,967.8
2022-11-10T05:10:35.900Z,967.87
2022-11-10T05:11:35.850Z,967.86
2022-11-10T05:12:35.943Z,967.88
2022-11-10T05:14:35.867Z,967.85
2022-11-10T05:15:35.940Z,967.86
2022-11-10T05:17:35.971Z,967.84
2022-11-10T05:18:35.939Z,967.85
2022-11-10T05:19:35.914Z,967.84
2022-11-10T05:20:35.896Z,967.86
2022-11-10T05:22:35.972Z,967.85
2022-11-10T05:23:35.888Z,967.88
2022-11-10T05:24:35.945Z,967.86
2022-11-10T05:25:35.918Z,967.9
2022-11-10T05:26:36.002Z,967.93
2022-11-10T05:27:35.956Z,967.96
2022-11-10T05:30:35.960Z,968.01
2022-11-10T05:31:35.923Z,967.97
2022-11-10T05:32:35.866Z,968.01
2022-11-10T05:33:35.974Z,968.05
2022-11-10T05:34:35.934Z,968.1
2022-11-10T05:35:36.000Z,968.11
2022-11-10T05:36:35.962Z,968.1
2022-11-10T05:37:35.937Z,968.14
2022-11-10T05:38:40.447Z,968.15
2022-11-10T05:39:35.886Z,968.27
2022-11-10T05:40:35.932Z,968.26
2022-11-10T05:41:36.021Z,968.28
2022-11-10T05:42:35.960Z,968.33
2022-11-10T05:43:35.945Z,968.38
2022-11-10T05:44:36.034Z,968.42
2022-11-10T05:47:36.151Z,968.48
2022-11-10T05:48:36.032Z,968.49
2022-11-10T05:49:36.058Z,968.52
2022-11-10T05:50:36.016Z,968.54
2022-11-10T05:51:35.986Z,968.56
2022-11-10T05:53:35.914Z,968.58
2022-11-10T05:54:36.025Z,968.6
2022-11-10T05:56:36.031Z,968.61
2022-11-10T05:57:35.994Z,968.58
2022-11-10T05:58:35.976Z,968.57
2022-11-10T05:59:36.029Z,968.61
2022-11-10T06:00:36.001Z,968.6
2022-11-10T06:01:35.958Z,968.57
2022-11-10T06:02:36.036Z,968.61
2022-11-10T06:03:36.043Z,968.58
2022-11-10T06:04:35.999Z,968.61
2022-11-10T06:05:36.036Z,968.59
2022-11-10T06:06:36.129Z,968.57
2022-11-10T06:07:35.948Z,968.58
2022-11-10T06:08:36.023Z,968.61
2022-11-10T06:09:36.112Z,968.62
2022-11-10T06:10:36.072Z,968.6
2022-11-10T06:11:35.963Z,968.61
2022-11-10T06:12:36.119Z,968.57
2022-11-10T06:13:36.087Z,968.62
2022-11-10T06:14:35.961Z,968.63
2022-11-10T06:15:36.114Z,968.64
2022-11-10T06:16:36.077Z,968.67
2022-11-10T06:17:36.050Z,968.72
2022-11-10T06:19:36.084Z,968.75
2022-11-10T06:20:36.051Z,968.8
2022-11-10T06:21:36.121Z,968.87
2022-11-10T06:23:36.049Z,968.89
2022-11-10T06:24:35.975Z,968.97
2022-11-10T06:25:36.090Z,968.96
2022-11-10T06:27:36.052Z,968.98
2022-11-10T06:29:35.991Z,969.04
2022-11-10T06:30:36.114Z,969.05
2022-11-10T06:31:36.094Z,969.04
2022-11-10T06:32:35.998Z,969.06
2022-11-10T06:35:36.081Z,969.05
2022-11-10T06:36:36.058Z,969.08
2022-11-10T06:37:36.103Z,969.11
2022-11-10T06:38:36.007Z,969.07
2022-11-10T06:39:36.154Z,969.09
2022-11-10T06:41:37.212Z,969.1
2022-11-10T06:42:36.040Z,969.14
2022-11-10T06:43:36.028Z,969.17
2022-11-10T06:44:36.122Z,969.23
2022-11-10T06:45:36.156Z,969.27
2022-11-10T06:46:39.607Z,969.26
2022-11-10T06:47:36.107Z,969.3
2022-11-10T06:48:36.036Z,969.25
2022-11-10T06:49:36.053Z,969.34
2022-11-10T06:50:36.114Z,969.31
2022-11-10T06:51:36.172Z,969.32
2022-11-10T06:52:36.141Z,969.35
2022-11-10T06:53:36.067Z,969.36
2022-11-10T06:55:36.050Z,969.4
2022-11-10T06:56:36.046Z,969.38
2022-11-10T06:57:36.170Z,969.49
2022-11-10T06:58:36.127Z,969.43
2022-11-10T06:59:36.098Z,969.46
2022-11-10T07:00:36.159Z,969.49
2022-11-10T07:01:36.107Z,969.47
2022-11-10T07:03:38.754Z,969.46
2022-11-10T07:04:36.140Z,969.5
2022-11-10T07:05:36.069Z,969.47
2022-11-10T07:06:36.236Z,969.49
2022-11-10T07:07:36.138Z,969.47
2022-11-10T07:08:36.109Z,969.48
2022-11-10T07:09:36.083Z,969.51
2022-11-10T07:10:36.229Z,969.53
2022-11-10T07:11:36.095Z,969.58
2022-11-10T07:12:36.205Z,969.55
2022-11-10T07:13:36.247Z,969.57
2022-11-10T07:14:36.107Z,969.55
2022-11-10T07:15:36.095Z,969.56
2022-11-10T07:16:36.164Z,969.59
2022-11-10T07:17:36.115Z,969.62
2022-11-10T07:18:36.102Z,969.66
2022-11-10T07:19:36.171Z,969.68
2022-11-10T07:20:36.222Z,969.71
2022-11-10T07:21:36.190Z,969.75
2022-11-10T07:22:36.177Z,969.73
2022-11-10T07:23:36.131Z,969.81
2022-11-10T07:24:36.190Z,969.79
2022-11-10T07:25:36.268Z,969.82
2022-11-10T07:26:36.115Z,969.85
2022-11-10T07:27:36.119Z,969.88
2022-11-10T07:28:36.204Z,969.91
2022-11-10T07:29:36.231Z,969.92
2022-11-10T07:30:36.129Z,969.95
2022-11-10T07:31:37.515Z,969.96
2022-11-10T07:33:36.204Z,970.01
2022-11-10T07:34:36.224Z,970.03
2022-11-10T07:35:36.174Z,970.04
2022-11-10T07:36:36.156Z,970.09
2022-11-10T07:37:36.174Z,970.1
2022-11-10T07:38:36.253Z,970.11
2022-11-10T07:39:36.226Z,970.14
2022-11-10T07:40:36.188Z,970.13
2022-11-10T07:41:36.161Z,970.16
2022-11-10T07:42:36.165Z,970.2
2022-11-10T07:43:36.193Z,970.19
2022-11-10T07:44:36.200Z,970.2
2022-11-10T07:45:36.238Z,970.22
2022-11-10T07:46:36.332Z,970.2
2022-11-10T07:47:36.255Z,970.23
2022-11-10T07:48:36.280Z,970.24
2022-11-10T07:49:36.222Z,970.26
2022-11-10T07:50:36.266Z,970.28
2022-11-10T07:51:36.350Z,970.25
2022-11-10T07:52:36.301Z,970.28
2022-11-10T07:53:36.269Z,970.32
2022-11-10T07:54:36.249Z,970.35
2022-11-10T07:55:36.191Z,970.36
2022-11-10T07:56:36.213Z,970.42
2022-11-10T07:57:37.219Z,970.43
2022-11-10T07:58:36.195Z,970.45
2022-11-10T07:59:36.292Z,970.47
2022-11-10T08:00:36.222Z,970.49
2022-11-10T08:01:36.381Z,970.48
2022-11-10T08:02:36.293Z,970.54
2022-11-10T08:03:36.375Z,970.5
2022-11-10T08:04:36.218Z,970.54
2022-11-10T08:05:36.299Z,970.53
2022-11-10T08:06:36.616Z,970.56
2022-11-10T08:07:36.372Z,970.57
2022-11-10T08:08:36.233Z,970.62
2022-11-10T08:09:36.370Z,970.64
2022-11-10T08:10:36.354Z,970.62
2022-11-10T08:11:36.307Z,970.65
2022-11-10T08:12:36.298Z,970.61
2022-11-10T08:13:36.337Z,970.59
2022-11-10T08:14:36.305Z,970.56
2022-11-10T08:15:36.276Z,970.63
2022-11-10T08:16:36.334Z,970.66
2022-11-10T08:18:36.420Z,970.71
2022-11-10T08:20:36.320Z,970.72
2022-11-10T08:21:36.301Z,970.71
2022-11-10T08:23:36.424Z,970.73
2022-11-10T08:24:36.383Z,970.74
2022-11-10T08:25:36.361Z,970.76
2022-11-10T08:27:36.308Z,970.79
2022-11-10T08:28:36.366Z,970.85
2022-11-10T08:29:36.336Z,970.8
2022-11-10T08:30:36.396Z,970.83
2022-11-10T08:32:36.437Z,970.9
2022-11-10T08:34:36.366Z,970.91
2022-11-10T08:35:36.356Z,970.98
2022-11-10T08:36:36.407Z,970.96
2022-11-10T08:37:36.368Z,970.98
2022-11-10T08:38:36.451Z,970.97
2022-11-10T08:39:39.241Z,970.98
2022-11-10T08:40:36.380Z,970.93
2022-11-10T08:41:36.347Z,970.97
2022-11-10T08:42:36.414Z,971.01
2022-11-10T08:43:36.382Z,970.98
2022-11-10T08:44:36.320Z,971.02
2022-11-10T08:45:36.423Z,971.03
2022-11-10T08:47:36.458Z,971.08
2022-11-10T08:48:36.428Z,971.05
2022-11-10T08:49:36.386Z,971.02
2022-11-10T08:50:36.463Z,971.08
2022-11-10T08:52:36.399Z,971.05
2022-11-10T08:53:36.448Z,971.08
2022-11-10T08:56:36.437Z,971.13
2022-11-10T08:57:36.455Z,971.14
2022-11-10T08:58:42.999Z,971.16
2022-11-10T08:59:36.456Z,971.19
2022-11-10T09:00:36.441Z,971.2
2022-11-10T09:01:36.406Z,971.19
2022-11-10T09:03:36.449Z,971.2
2022-11-10T09:04:36.563Z,971.21
2022-11-10T09:06:36.530Z,971.28
2022-11-10T09:07:36.521Z,971.27
2022-11-10T09:08:36.486Z,971.29
2022-11-10T09:10:36.539Z,971.32
2022-11-10T09:11:36.488Z,971.35
2022-11-10T09:12:36.457Z,971.39
2022-11-10T09:13:36.639Z,971.42
2022-11-10T09:14:36.502Z,971.46
2022-11-10T09:15:36.396Z,971.45
2022-11-10T09:16:36.530Z,971.51
2022-11-10T09:18:37.707Z,971.53
2022-11-10T09:19:36.582Z,971.52
2022-11-10T09:21:36.467Z,971.54
2022-11-10T09:22:37.752Z,971.5
2022-11-10T09:23:36.507Z,971.53
2022-11-10T09:24:36.468Z,971.54
2022-11-10T09:25:36.545Z,971.57
2022-11-10T09:26:36.501Z,971.54
2022-11-10T09:27:36.472Z,971.58
2022-11-10T09:28:36.563Z,971.56
2022-11-10T09:30:36.489Z,971.54
2022-11-10T09:31:36.548Z,971.56
2022-11-10T09:33:37.823Z,971.54
2022-11-10T09:34:36.559Z,971.57
2022-11-10T09:36:37.844Z,971.56
2022-11-10T09:39:37.859Z,971.53
2022-11-10T09:40:36.561Z,971.55
2022-11-10T09:41:36.538Z,971.57
2022-11-10T09:42:36.604Z,971.55
2022-11-10T09:43:36.563Z,971.56
2022-11-10T09:46:36.511Z,971.58
2022-11-10T09:47:56.045Z,971.6
2022-11-10T09:48:36.485Z,971.59
2022-11-10T09:50:36.598Z,971.58
2022-11-10T09:52:36.596Z,971.57
2022-11-10T09:53:36.555Z,971.58
2022-11-10T09:54:37.463Z,971.54
2022-11-10T09:55:36.581Z,971.59
2022-11-10T09:56:36.547Z,971.56
2022-11-10T09:57:36.631Z,971.58
2022-11-10T09:58:36.590Z,971.56
2022-11-10T09:59:36.557Z,971.57
2022-11-10T10:00:36.512Z,971.62
2022-11-10T10:01:36.638Z,971.64
2022-11-10T10:02:36.666Z,971.67
2022-11-10T10:04:36.601Z,971.67
2022-11-10T10:05:36.560Z,971.64
2022-11-10T10:06:50.162Z,971.63
2022-11-10T10:07:36.548Z,971.6
2022-11-10T10:08:36.671Z,971.56
2022-11-10T10:09:36.628Z,971.6
2022-11-10T10:10:36.513Z,971.59
2022-11-10T10:11:36.677Z,971.58
2022-11-10T10:12:36.637Z,971.61
2022-11-10T10:13:36.552Z,971.62
2022-11-10T10:14:36.579Z,971.64
2022-11-10T10:15:36.641Z,971.6
2022-11-10T10:16:36.530Z,971.62
2022-11-10T10:18:36.645Z,971.65
2022-11-10T10:19:36.609Z,971.63
2022-11-10T10:20:37.618Z,971.61
2022-11-10T10:21:36.648Z,971.58
2022-11-10T10:22:36.552Z,971.53
2022-11-10T10:24:02.554Z,971.55
2022-11-10T10:24:36.833Z,971.51
2022-11-10T10:25:36.563Z,971.5
2022-11-10T10:26:36.590Z,971.53
2022-11-10T10:27:36.659Z,971.51
2022-11-10T10:28:36.629Z,971.54
2022-11-10T10:29:37.401Z,971.56
2022-11-10T10:30:36.671Z,971.58
2022-11-10T10:31:36.561Z,971.57
2022-11-10T10:32:36.697Z,971.54
2022-11-10T10:33:36.582Z,971.53
2022-11-10T10:34:36.575Z,971.52
2022-11-10T10:35:41.577Z,971.5
2022-11-10T10:36:36.587Z,971.54
2022-11-10T10:37:36.638Z,971.49
2022-11-10T10:38:36.593Z,971.53
2022-11-10T10:39:36.601Z,971.52
2022-11-10T10:41:36.596Z,971.53
2022-11-10T10:42:36.600Z,971.54
2022-11-10T10:43:36.767Z,971.56
2022-11-10T10:44:36.723Z,971.57
2022-11-10T10:45:36.649Z,971.59
2022-11-10T10:46:36.631Z,971.56
2022-11-10T10:47:36.599Z,971.59
2022-11-10T10:48:36.620Z,971.58
2022-11-10T10:49:37.930Z,971.61
2022-11-10T10:50:36.623Z,971.62
2022-11-10T10:51:36.689Z,971.64
2022-11-10T10:52:36.668Z,971.65
2022-11-10T10:53:36.613Z,971.68
2022-11-10T10:54:36.699Z,971.7
2022-11-10T10:55:36.721Z,971.75
2022-11-10T10:56:36.648Z,971.77
2022-11-10T10:57:36.700Z,971.83
2022-11-10T10:58:36.657Z,971.82
2022-11-10T11:00:36.705Z,971.85
2022-11-10T11:01:37.928Z,971.8
2022-11-10T11:02:36.737Z,971.77
2022-11-10T11:03:36.705Z,971.78
2022-11-10T11:04:36.787Z,971.79
2022-11-10T11:05:36.749Z,971.77
2022-11-10T11:06:36.770Z,971.83
2022-11-10T11:07:36.783Z,971.75
2022-11-10T11:08:36.749Z,971.8
2022-11-10T11:09:36.731Z,971.75
2022-11-10T11:10:36.675Z,971.76
2022-11-10T11:11:36.763Z,971.82
2022-11-10T11:12:36.765Z,971.81
2022-11-10T11:13:36.793Z,971.85
2022-11-10T11:14:38.641Z,971.84
2022-11-10T11:15:36.830Z,971.86
2022-11-10T11:16:36.900Z,971.82
2022-11-10T11:17:36.663Z,971.81
2022-11-10T11:18:36.837Z,971.8
2022-11-10T11:19:36.686Z,971.79
2022-11-10T11:20:36.675Z,971.78
2022-11-10T11:21:36.830Z,971.79
2022-11-10T11:22:36.802Z,971.8
2022-11-10T11:23:36.771Z,971.78
2022-11-10T11:24:36.890Z,971.8
2022-11-10T11:25:36.809Z,971.76
2022-11-10T11:26:36.781Z,971.77
2022-11-10T11:27:38.011Z,971.79
2022-11-10T11:28:36.814Z,971.77
2022-11-10T11:29:36.706Z,971.81
2022-11-10T11:30:36.845Z,971.74
2022-11-10T11:33:37.017Z,971.75
2022-11-10T11:34:36.726Z,971.73
2022-11-10T11:35:36.780Z,971.75
2022-11-10T11:38:36.835Z,971.73
2022-11-10T11:39:36.772Z,971.7
2022-11-10T11:40:36.829Z,971.74
2022-11-10T11:42:36.865Z,971.7
2022-11-10T11:43:36.836Z,971.73
2022-11-10T11:44:36.803Z,971.67
2022-11-10T11:45:36.862Z,971.69
2022-11-10T11:46:38.115Z,971.56
2022-11-10T11:47:36.908Z,971.64
2022-11-10T11:48:36.886Z,971.6
2022-11-10T11:49:36.843Z,971.65
2022-11-10T11:50:36.765Z,971.63
2022-11-10T11:53:36.771Z,971.67
2022-11-10T11:54:36.877Z,971.73
2022-11-10T11:55:36.848Z,971.69
2022-11-10T11:56:36.777Z,971.74
2022-11-10T11:57:39.957Z,971.71
2022-11-10T11:58:36.950Z,971.72
2022-11-10T11:59:38.706Z,971.71
2022-11-10T12:00:36.878Z,971.74
2022-11-10T12:01:36.845Z,971.76
2022-11-10T12:02:36.951Z,971.7
2022-11-10T12:04:36.860Z,971.69
2022-11-10T12:05:36.924Z,971.62
2022-11-10T12:06:36.842Z,971.59
2022-11-10T12:08:36.825Z,971.54
2022-11-10T12:10:40.591Z,971.57
2022-11-10T12:11:36.933Z,971.61
2022-11-10T12:12:36.902Z,971.63
2022-11-10T12:13:36.825Z,971.71
2022-11-10T12:14:36.857Z,971.74
2022-11-10T12:15:36.817Z,971.79
2022-11-10T12:16:36.831Z,971.83
2022-11-10T12:17:36.827Z,971.84
2022-11-10T12:18:36.829Z,971.8
2022-11-10T12:19:36.816Z,971.71
2022-11-10T12:20:36.846Z,971.72
2022-11-10T12:21:36.839Z,971.67
2022-11-10T12:22:36.880Z,971.66
2022-11-10T12:23:36.848Z,971.64
2022-11-10T12:24:36.834Z,971.58
2022-11-10T12:25:36.988Z,971.54
2022-11-10T12:26:36.952Z,971.52
2022-11-10T12:27:36.840Z,971.5
2022-11-10T12:28:36.912Z,971.48
2022-11-10T12:29:36.953Z,971.52
2022-11-10T12:30:36.925Z,971.5
2022-11-10T12:31:36.858Z,971.49
2022-11-10T12:32:36.964Z,971.5
2022-11-10T12:33:36.861Z,971.48
2022-11-10T12:34:37.969Z,971.47
2022-11-10T12:35:36.875Z,971.46
2022-11-10T12:36:36.865Z,971.47
2022-11-10T12:37:36.893Z,971.54
2022-11-10T12:38:36.970Z,971.57
2022-11-10T12:40:40.495Z,971.6
2022-11-10T12:41:37.428Z,971.57
2022-11-10T12:42:37.052Z,971.6
2022-11-10T12:45:36.944Z,971.58
2022-11-10T12:46:36.900Z,971.59
2022-11-10T12:47:36.892Z,971.58
2022-11-10T12:48:37.071Z,971.59
2022-11-10T12:49:36.906Z,971.58
2022-11-10T12:50:36.898Z,971.56
2022-11-10T12:51:36.961Z,971.52
2022-11-10T12:52:37.019Z,971.53
2022-11-10T12:53:36.992Z,971.56
2022-11-10T12:54:38.065Z,971.55
2022-11-10T12:56:36.972Z,971.54
2022-11-10T12:57:37.273Z,971.51
2022-11-10T12:58:37.034Z,971.48
2022-11-10T12:59:37.008Z,971.46
2022-11-10T13:00:36.936Z,971.43
2022-11-10T13:02:37.063Z,971.45
2022-11-10T13:03:36.947Z,971.48
2022-11-10T13:04:36.945Z,971.47
2022-11-10T13:05:37.011Z,971.48
2022-11-10T13:06:37.054Z,971.46
2022-11-10T13:07:36.937Z,971.51
2022-11-10T13:08:36.952Z,971.47
2022-11-10T13:09:36.960Z,971.45
2022-11-10T13:10:37.044Z,971.44
2022-11-10T13:12:36.962Z,971.43
2022-11-10T13:14:36.973Z,971.44
2022-11-10T13:15:36.964Z,971.42
2022-11-10T13:16:36.957Z,971.44
2022-11-10T13:17:37.019Z,971.45
2022-11-10T13:18:36.962Z,971.42
2022-11-10T13:19:37.064Z,971.44
2022-11-10T13:20:37.124Z,971.43
2022-11-10T13:21:36.987Z,971.42
2022-11-10T13:23:36.971Z,971.43
2022-11-10T13:25:37.072Z,971.41
2022-11-10T13:28:37.071Z,971.34
2022-11-10T13:29:38.275Z,971.4
2022-11-10T13:30:37.105Z,971.36
2022-11-10T13:31:37.069Z,971.39
2022-11-10T13:32:36.995Z,971.4
2022-11-10T13:33:37.106Z,971.39
2022-11-10T13:34:37.077Z,971.38
2022-11-10T13:35:37.078Z,971.39
2022-11-10T13:36:37.012Z,971.38
2022-11-10T13:37:37.072Z,971.36
2022-11-10T13:39:37.118Z,971.4
2022-11-10T13:40:37.089Z,971.39
2022-11-10T13:41:37.042Z,971.4
2022-11-10T13:42:37.017Z,971.37
2022-11-10T13:43:37.088Z,971.39
2022-11-10T13:44:37.157Z,971.37
2022-11-10T13:45:37.039Z,971.41
2022-11-10T13:46:37.029Z,971.36
2022-11-10T13:47:37.160Z,971.38
2022-11-10T13:48:37.132Z,971.36
2022-11-10T13:49:37.043Z,971.39
2022-11-10T13:50:37.069Z,971.3
2022-11-10T13:51:37.136Z,971.34
2022-11-10T13:53:37.132Z,971.35
2022-11-10T13:54:37.156Z,971.3
2022-11-10T13:55:37.211Z,971.33
2022-11-10T13:56:37.176Z,971.29
2022-11-10T13:57:37.061Z,971.3
2022-11-10T13:58:37.061Z,971.28
2022-11-10T14:00:37.062Z,971.29
2022-11-10T14:01:37.063Z,971.25
2022-11-10T14:02:37.194Z,971.28
2022-11-10T14:03:37.213Z,971.31
2022-11-10T14:04:37.174Z,971.3
2022-11-10T14:05:37.083Z,971.34
2022-11-10T14:07:37.129Z,971.32
2022-11-10T14:08:37.090Z,971.35
2022-11-10T14:09:37.161Z,971.4
2022-11-10T14:10:37.093Z,971.37
2022-11-10T14:12:37.158Z,971.35
2022-11-10T14:13:38.602Z,971.37
2022-11-10T14:14:37.214Z,971.44
2022-11-10T14:15:37.116Z,971.43
2022-11-10T14:16:37.120Z,971.47
2022-11-10T14:17:37.204Z,971.52
2022-11-10T14:18:37.119Z,971.6
2022-11-10T14:20:37.118Z,971.62
2022-11-10T14:21:37.113Z,971.65
2022-11-10T14:22:37.139Z,971.57
2022-11-10T14:23:37.214Z,971.59
2022-11-10T14:25:37.189Z,971.58
2022-11-10T14:26:37.144Z,971.53
2022-11-10T14:27:37.138Z,971.44
2022-11-10T14:28:37.140Z,971.38
2022-11-10T14:29:37.223Z,971.33
2022-11-10T14:30:38.137Z,971.32
2022-11-10T14:31:37.148Z,971.27
2022-11-10T14:32:37.269Z,971.25
2022-11-10T14:33:37.303Z,971.19
2022-11-10T14:34:37.152Z,971.18
2022-11-10T14:35:37.193Z,971.19
2022-11-10T14:36:38.158Z,971.17
2022-11-10T14:37:37.269Z,971.24